Time,TemperatureF,DewpointF,PressureIn,WindDirection,WindDirectionDegrees,WindSpeedMPH,WindSpeedGustMPH,Humidity,HourlyPrecipIn,Conditions,Clouds,dailyrainin,SoftwareType,DateUTC
2013-02-12 00:02:00,38.8,32.2,30.31,West,270,0.0,1.0,77,0.00,,,0.00,meteohub,2013-02-12 08:02:00,
2013-02-12 00:07:00,38.8,32.2,30.31,West,270,0.0,1.0,77,0.00,,,0.00,meteohub,2013-02-12 08:07:00,
2013-02-12 00:12:00,38.5,31.8,30.30,West,270,0.0,1.0,77,0.00,,,0.00,meteohub,2013-02-12 08:12:00,
2013-02-12 00:17:00,38.3,31.6,30.31,West,270,0.0,0.0,77,0.00,,,0.00,meteohub,2013-02-12 08:17:00,
2013-02-12 00:22:00,37.9,31.6,30.31,West,270,0.0,0.0,78,0.00,,,0.00,meteohub,2013-02-12 08:22:00,
2013-02-12 00:27:00,37.9,31.6,30.30,SE,135,1.0,0.0,78,0.00,,,0.00,meteohub,2013-02-12 08:27:00,
2013-02-12 00:32:00,37.9,32.0,30.31,West,270,0.0,2.0,79,0.00,,,0.00,meteohub,2013-02-12 08:32:00,
2013-02-12 00:37:00,37.9,32.0,30.31,West,270,0.0,2.0,79,0.00,,,0.00,meteohub,2013-02-12 08:37:00,
2013-02-12 00:42:00,38.1,32.5,30.31,West,270,0.0,2.0,80,0.00,,,0.00,meteohub,2013-02-12 08:42:00,
2013-02-12 00:47:00,38.3,32.7,30.31,West,270,0.0,1.0,80,0.00,,,0.00,meteohub,2013-02-12 08:47:00,
2013-02-12 00:52:00,38.3,32.7,30.31,West,270,0.0,1.0,80,0.00,,,0.00,meteohub,2013-02-12 08:52:00,
2013-02-12 00:57:00,38.3,32.7,30.32,West,270,0.0,1.0,80,0.00,,,0.00,meteohub,2013-02-12 08:57:00,
2013-02-12 01:02:00,38.5,32.9,30.31,West,270,0.0,1.0,80,0.00,,,0.00,meteohub,2013-02-12 09:02:00,
2013-02-12 01:07:00,38.1,32.5,30.31,West,270,0.0,0.0,80,0.00,,,0.00,meteohub,2013-02-12 09:07:00,
2013-02-12 01:12:00,37.9,32.4,30.31,West,270,0.0,0.0,80,0.00,,,0.00,meteohub,2013-02-12 09:12:00,
2013-02-12 01:17:00,37.8,32.2,30.31,West,270,0.0,0.0,80,0.00,,,0.00,meteohub,2013-02-12 09:17:00,
2013-02-12 01:22:00,37.8,32.2,30.31,West,270,0.0,0.0,80,0.00,,,0.00,meteohub,2013-02-12 09:22:00,
2013-02-12 01:27:00,37.4,32.2,30.31,West,270,0.0,0.0,81,0.00,,,0.00,meteohub,2013-02-12 09:27:00,
2013-02-12 01:32:00,37.4,32.2,30.32,SE,135,0.0,0.0,81,0.00,,,0.00,meteohub,2013-02-12 09:32:00,
2013-02-12 01:37:00,37.4,32.4,30.32,SE,135,0.0,1.0,82,0.00,,,0.00,meteohub,2013-02-12 09:37:00,
2013-02-12 01:42:00,37.6,32.9,30.32,SE,135,0.0,1.0,83,0.00,,,0.00,meteohub,2013-02-12 09:42:00,
2013-02-12 01:47:00,37.6,32.5,30.32,SW,225,0.0,1.0,82,0.00,,,0.00,meteohub,2013-02-12 09:47:00,
2013-02-12 01:52:00,37.6,32.9,30.32,SE,135,1.0,1.0,83,0.00,,,0.00,meteohub,2013-02-12 09:52:00,
2013-02-12 01:57:00,37.6,32.9,30.33,West,270,0.0,1.0,83,0.00,,,0.00,meteohub,2013-02-12 09:57:00,
2013-02-12 02:02:00,37.6,32.5,30.32,West,270,0.0,1.0,82,0.00,,,0.00,meteohub,2013-02-12 10:02:00,
2013-02-12 02:07:00,37.6,32.5,30.33,West,270,0.0,1.0,82,0.00,,,0.00,meteohub,2013-02-12 10:07:00,
2013-02-12 02:12:00,37.2,32.5,30.33,SW,225,0.0,1.0,83,0.00,,,0.00,meteohub,2013-02-12 10:12:00,
2013-02-12 02:17:00,37.2,32.5,30.32,SW,225,0.0,0.0,83,0.00,,,0.00,meteohub,2013-02-12 10:17:00,
2013-02-12 02:22:00,37.4,32.7,30.33,SW,225,1.0,0.0,83,0.00,,,0.00,meteohub,2013-02-12 10:22:00,
2013-02-12 02:27:00,37.6,32.9,30.32,North,0,0.0,1.0,83,0.00,,,0.00,meteohub,2013-02-12 10:27:00,
2013-02-12 02:32:00,37.8,33.1,30.33,North,0,0.0,1.0,83,0.00,,,0.00,meteohub,2013-02-12 10:32:00,
2013-02-12 02:37:00,37.6,32.9,30.33,West,270,0.0,1.0,83,0.00,,,0.00,meteohub,2013-02-12 10:37:00,
2013-02-12 02:42:00,37.6,32.9,30.32,West,270,0.0,0.0,83,0.00,,,0.00,meteohub,2013-02-12 10:42:00,
2013-02-12 02:47:00,37.8,33.1,30.32,SW,225,0.0,0.0,83,0.00,,,0.00,meteohub,2013-02-12 10:47:00,
2013-02-12 02:57:00,38.1,33.4,30.33,West,270,0.0,0.0,83,0.00,,,0.00,meteohub,2013-02-12 10:57:00,
2013-02-12 03:02:00,38.3,34.0,30.33,West,270,0.0,0.0,84,0.00,,,0.00,meteohub,2013-02-12 11:02:00,
2013-02-12 03:07:00,38.3,34.0,30.33,West,270,0.0,0.0,84,0.00,,,0.00,meteohub,2013-02-12 11:07:00,
2013-02-12 03:12:00,38.5,34.2,30.33,West,270,0.0,0.0,84,0.00,,,0.00,meteohub,2013-02-12 11:12:00,
2013-02-12 03:17:00,38.5,34.2,30.33,West,270,0.0,0.0,84,0.00,,,0.00,meteohub,2013-02-12 11:17:00,
2013-02-12 03:27:00,38.8,34.3,30.33,West,270,0.0,0.0,84,0.00,,,0.00,meteohub,2013-02-12 11:27:00,
2013-02-12 03:32:00,39.0,34.5,30.33,SW,225,0.0,0.0,84,0.00,,,0.00,meteohub,2013-02-12 11:32:00,
2013-02-12 03:37:00,39.2,34.7,30.33,SW,225,0.0,1.0,84,0.00,,,0.00,meteohub,2013-02-12 11:37:00,
2013-02-12 03:42:00,39.6,35.1,30.34,SW,225,0.0,1.0,84,0.00,,,0.00,meteohub,2013-02-12 11:42:00,
2013-02-12 03:47:00,39.7,35.2,30.34,SW,225,0.0,1.0,84,0.00,,,0.00,meteohub,2013-02-12 11:47:00,
2013-02-12 03:52:00,40.1,36.0,30.34,SW,225,0.0,1.0,85,0.00,,,0.00,meteohub,2013-02-12 11:52:00,
2013-02-12 03:57:00,40.3,36.1,30.34,SW,225,0.0,1.0,85,0.00,,,0.00,meteohub,2013-02-12 11:57:00,
2013-02-12 04:02:00,40.5,36.3,30.34,SW,225,1.0,1.0,85,0.00,,,0.00,meteohub,2013-02-12 12:02:00,
2013-02-12 04:07:00,40.8,36.7,30.34,SW,225,0.0,1.0,85,0.00,,,0.00,meteohub,2013-02-12 12:07:00,
2013-02-12 04:12:00,40.8,36.7,30.34,SW,225,0.0,1.0,85,0.00,,,0.00,meteohub,2013-02-12 12:12:00,
2013-02-12 04:17:00,41.0,36.9,30.34,SW,225,0.0,1.0,85,0.00,,,0.00,meteohub,2013-02-12 12:17:00,
2013-02-12 04:22:00,41.0,36.9,30.34,SW,225,1.0,0.0,85,0.00,,,0.00,meteohub,2013-02-12 12:22:00,
2013-02-12 04:27:00,41.4,37.6,30.34,East,90,2.0,2.0,86,0.00,,,0.00,meteohub,2013-02-12 12:27:00,
2013-02-12 04:32:00,41.7,37.8,30.34,SW,225,0.0,2.0,86,0.00,,,0.00,meteohub,2013-02-12 12:32:00,
2013-02-12 04:37:00,41.5,37.6,30.35,WSW,248,0.0,2.0,86,0.00,,,0.00,meteohub,2013-02-12 12:37:00,
2013-02-12 04:42:00,41.4,37.6,30.35,WSW,248,0.0,2.0,86,0.00,,,0.00,meteohub,2013-02-12 12:42:00,
2013-02-12 04:47:00,41.2,37.4,30.35,WSW,248,0.0,1.0,86,0.00,,,0.00,meteohub,2013-02-12 12:47:00,
2013-02-12 04:52:00,40.8,37.0,30.35,WSW,248,0.0,1.0,86,0.00,,,0.00,meteohub,2013-02-12 12:52:00,
2013-02-12 04:57:00,40.6,36.9,30.35,WSW,248,0.0,1.0,86,0.00,,,0.00,meteohub,2013-02-12 12:57:00,
2013-02-12 05:02:00,40.5,36.7,30.35,WSW,248,0.0,0.0,86,0.00,,,0.00,meteohub,2013-02-12 13:02:00,
2013-02-12 05:07:00,40.3,36.5,30.35,NW,315,0.0,0.0,86,0.00,,,0.00,meteohub,2013-02-12 13:07:00,
2013-02-12 05:12:00,40.5,36.9,30.34,East,90,2.0,2.0,87,0.00,,,0.00,meteohub,2013-02-12 13:12:00,
2013-02-12 05:17:00,40.6,37.0,30.35,East,90,0.0,2.0,87,0.00,,,0.00,meteohub,2013-02-12 13:17:00,
2013-02-12 05:22:00,40.6,37.0,30.35,South,180,2.0,2.0,87,0.00,,,0.00,meteohub,2013-02-12 13:22:00,
2013-02-12 05:27:00,40.8,37.2,30.35,East,90,2.0,2.0,87,0.00,,,0.00,meteohub,2013-02-12 13:27:00,
2013-02-12 05:32:00,40.8,37.2,30.35,East,90,0.0,2.0,87,0.00,,,0.00,meteohub,2013-02-12 13:32:00,
2013-02-12 05:37:00,40.5,36.9,30.35,East,90,0.0,2.0,87,0.00,,,0.00,meteohub,2013-02-12 13:37:00,
2013-02-12 05:42:00,40.1,36.5,30.36,East,90,0.0,2.0,87,0.00,,,0.00,meteohub,2013-02-12 13:42:00,
2013-02-12 05:47:00,39.7,36.1,30.36,East,90,0.0,0.0,87,0.00,,,0.00,meteohub,2013-02-12 13:47:00,
2013-02-12 05:52:00,39.7,36.1,30.36,East,90,0.0,0.0,87,0.00,,,0.00,meteohub,2013-02-12 13:52:00,
2013-02-12 05:57:00,39.6,36.3,30.35,East,90,0.0,0.0,88,0.00,,,0.00,meteohub,2013-02-12 13:57:00,
2013-02-12 06:02:00,39.4,36.1,30.36,East,90,0.0,0.0,88,0.00,,,0.00,meteohub,2013-02-12 14:02:00,
2013-02-12 06:07:00,38.8,35.6,30.36,East,90,0.0,0.0,88,0.00,,,0.00,meteohub,2013-02-12 14:07:00,
2013-02-12 06:12:00,38.8,35.6,30.36,East,90,0.0,0.0,88,0.00,,,0.00,meteohub,2013-02-12 14:12:00,
2013-02-12 06:17:00,38.8,35.6,30.36,East,90,0.0,1.0,88,0.00,,,0.00,meteohub,2013-02-12 14:17:00,
2013-02-12 06:22:00,38.8,35.6,30.35,East,90,0.0,1.0,88,0.00,,,0.00,meteohub,2013-02-12 14:22:00,
2013-02-12 06:27:00,38.7,35.4,30.35,East,90,0.0,1.0,88,0.00,,,0.00,meteohub,2013-02-12 14:27:00,
2013-02-12 06:32:00,38.5,35.2,30.36,East,90,0.0,0.0,88,0.00,,,0.00,meteohub,2013-02-12 14:32:00,
2013-02-12 06:37:00,38.3,35.1,30.36,East,90,0.0,0.0,88,0.00,,,0.00,meteohub,2013-02-12 14:37:00,
2013-02-12 06:42:00,38.3,35.1,30.37,East,90,0.0,0.0,88,0.00,,,0.00,meteohub,2013-02-12 14:42:00,
2013-02-12 06:47:00,38.1,35.2,30.36,East,90,0.0,0.0,89,0.00,,,0.00,meteohub,2013-02-12 14:47:00,
2013-02-12 06:52:00,38.5,35.6,30.36,East,90,0.0,0.0,89,0.00,,,0.00,meteohub,2013-02-12 14:52:00,
2013-02-12 06:57:00,38.1,35.2,30.36,East,90,0.0,0.0,89,0.00,,,0.00,meteohub,2013-02-12 14:57:00,
2013-02-12 07:02:00,37.9,35.1,30.37,East,90,0.0,0.0,89,0.00,,,0.00,meteohub,2013-02-12 15:02:00,
2013-02-12 07:07:00,37.9,35.1,30.37,East,90,0.0,0.0,89,0.00,,,0.00,meteohub,2013-02-12 15:07:00,
2013-02-12 07:12:00,37.9,35.1,30.37,SW,225,0.0,0.0,89,0.00,,,0.00,meteohub,2013-02-12 15:12:00,
2013-02-12 07:17:00,37.8,34.9,30.37,SW,225,0.0,0.0,89,0.00,,,0.00,meteohub,2013-02-12 15:17:00,
2013-02-12 07:22:00,37.8,34.9,30.37,SW,225,0.0,0.0,89,0.00,,,0.00,meteohub,2013-02-12 15:22:00,
2013-02-12 07:27:00,37.9,35.1,30.38,SW,225,0.0,0.0,89,0.00,,,0.00,meteohub,2013-02-12 15:27:00,
2013-02-12 07:32:00,37.9,35.1,30.38,SW,225,0.0,0.0,89,0.00,,,0.00,meteohub,2013-02-12 15:32:00,
2013-02-12 07:37:00,37.9,35.1,30.38,SW,225,0.0,0.0,89,0.00,,,0.00,meteohub,2013-02-12 15:37:00,
2013-02-12 07:42:00,38.1,35.2,30.38,SW,225,0.0,1.0,89,0.00,,,0.00,meteohub,2013-02-12 15:42:00,
2013-02-12 07:47:00,38.1,35.2,30.38,SW,225,0.0,1.0,89,0.00,,,0.00,meteohub,2013-02-12 15:47:00,
2013-02-12 07:52:00,38.3,35.6,30.39,SW,225,0.0,0.0,90,0.00,,,0.00,meteohub,2013-02-12 15:52:00,
2013-02-12 07:57:00,38.5,35.8,30.39,SW,225,0.0,0.0,90,0.00,,,0.00,meteohub,2013-02-12 15:57:00,
2013-02-12 08:02:00,38.8,36.1,30.39,SE,135,1.0,0.0,90,0.00,,,0.00,meteohub,2013-02-12 16:02:00,
2013-02-12 08:12:00,39.4,36.7,30.40,SE,135,0.0,1.0,90,0.00,,,0.00,meteohub,2013-02-12 16:12:00,
2013-02-12 08:22:00,39.9,37.2,30.40,SE,135,0.0,0.0,90,0.00,,,0.00,meteohub,2013-02-12 16:22:00,
2013-02-12 08:27:00,39.9,37.2,30.40,SE,135,0.0,0.0,90,0.00,,,0.00,meteohub,2013-02-12 16:27:00,
2013-02-12 08:32:00,40.1,37.4,30.40,SE,135,0.0,0.0,90,0.00,,,0.00,meteohub,2013-02-12 16:32:00,
2013-02-12 08:37:00,40.5,37.8,30.40,SE,135,0.0,0.0,90,0.00,,,0.00,meteohub,2013-02-12 16:37:00,
2013-02-12 08:42:00,40.6,37.9,30.39,SE,135,0.0,0.0,90,0.00,,,0.00,meteohub,2013-02-12 16:42:00,
2013-02-12 08:47:00,41.0,38.3,30.40,SE,135,0.0,1.0,90,0.00,,,0.00,meteohub,2013-02-12 16:47:00,
2013-02-12 08:52:00,41.2,38.5,30.40,SE,135,0.0,1.0,90,0.00,,,0.00,meteohub,2013-02-12 16:52:00,
2013-02-12 08:57:00,41.5,39.2,30.40,SW,225,0.0,0.0,91,0.00,,,0.00,meteohub,2013-02-12 16:57:00,
2013-02-12 09:02:00,41.9,39.4,30.40,SW,225,0.0,0.0,91,0.00,,,0.00,meteohub,2013-02-12 17:02:00,
2013-02-12 09:07:00,42.3,39.7,30.40,SW,225,1.0,0.0,91,0.00,,,0.00,meteohub,2013-02-12 17:07:00,
2013-02-12 09:12:00,42.4,39.9,30.40,SW,225,0.0,1.0,91,0.00,,,0.00,meteohub,2013-02-12 17:12:00,
2013-02-12 09:17:00,42.6,39.9,30.40,SW,225,0.0,1.0,90,0.00,,,0.00,meteohub,2013-02-12 17:17:00,
2013-02-12 09:22:00,42.8,40.1,30.40,SW,225,0.0,1.0,90,0.00,,,0.00,meteohub,2013-02-12 17:22:00,
2013-02-12 09:27:00,43.3,40.6,30.40,SW,225,0.0,1.0,90,0.00,,,0.00,meteohub,2013-02-12 17:27:00,
2013-02-12 09:32:00,43.7,41.0,30.40,SW,225,1.0,1.0,90,0.00,,,0.00,meteohub,2013-02-12 17:32:00,
2013-02-12 09:37:00,44.1,41.0,30.41,SW,225,0.0,1.0,89,0.00,,,0.00,meteohub,2013-02-12 17:37:00,
2013-02-12 09:42:00,44.4,41.4,30.40,West,270,1.0,1.0,89,0.00,,,0.00,meteohub,2013-02-12 17:42:00,
2013-02-12 09:47:00,44.8,41.4,30.40,South,180,2.0,2.0,88,0.00,,,0.00,meteohub,2013-02-12 17:47:00,
2013-02-12 09:52:00,45.1,41.7,30.40,South,180,1.0,2.0,88,0.00,,,0.00,meteohub,2013-02-12 17:52:00,
2013-02-12 09:57:00,45.7,42.1,30.41,South,180,2.0,2.0,87,0.00,,,0.00,meteohub,2013-02-12 17:57:00,
2013-02-12 10:02:00,46.8,42.8,30.40,SW,225,2.0,2.0,86,0.00,,,0.00,meteohub,2013-02-12 18:02:00,
2013-02-12 10:07:00,48.4,43.7,30.41,East,90,2.0,2.0,84,0.00,,,0.00,meteohub,2013-02-12 18:07:00,
2013-02-12 10:12:00,49.8,44.6,30.40,WNW,293,1.0,4.0,82,0.00,,,0.00,meteohub,2013-02-12 18:12:00,
2013-02-12 10:17:00,50.7,44.8,30.41,SW,225,2.0,4.0,80,0.00,,,0.00,meteohub,2013-02-12 18:17:00,
2013-02-12 10:22:00,51.6,45.3,30.40,SW,225,2.0,2.0,79,0.00,,,0.00,meteohub,2013-02-12 18:22:00,
2013-02-12 10:27:00,52.7,45.7,30.41,SW,225,2.0,2.0,77,0.00,,,0.00,meteohub,2013-02-12 18:27:00,
2013-02-12 10:32:00,53.8,45.7,30.40,NW,315,3.0,3.0,74,0.00,,,0.00,meteohub,2013-02-12 18:32:00,
2013-02-12 10:37:00,54.7,45.5,30.40,SW,225,2.0,4.0,71,0.00,,,0.00,meteohub,2013-02-12 18:37:00,
2013-02-12 10:42:00,55.8,46.0,30.40,NW,315,2.0,4.0,70,0.00,,,0.00,meteohub,2013-02-12 18:42:00,
2013-02-12 10:47:00,56.7,46.2,30.40,NW,315,2.0,4.0,68,0.00,,,0.00,meteohub,2013-02-12 18:47:00,
2013-02-12 10:52:00,57.2,46.4,30.40,SW,225,2.0,4.0,67,0.00,,,0.00,meteohub,2013-02-12 18:52:00,
2013-02-12 10:57:00,57.7,46.9,30.41,West,270,2.0,4.0,67,0.00,,,0.00,meteohub,2013-02-12 18:57:00,
2013-02-12 11:02:00,58.3,46.6,30.41,NW,315,2.0,4.0,65,0.00,,,0.00,meteohub,2013-02-12 19:02:00,
2013-02-12 11:07:00,58.6,46.6,30.40,West,270,3.0,3.0,64,0.00,,,0.00,meteohub,2013-02-12 19:07:00,
2013-02-12 11:17:00,59.0,46.0,30.40,West,270,2.0,4.0,62,0.00,,,0.00,meteohub,2013-02-12 19:17:00,
2013-02-12 11:22:00,59.4,45.5,30.41,NW,315,2.0,4.0,60,0.00,,,0.00,meteohub,2013-02-12 19:22:00,
2013-02-12 11:32:00,59.9,43.7,30.40,SW,225,2.0,3.0,55,0.00,,,0.00,meteohub,2013-02-12 19:32:00,
2013-02-12 11:37:00,60.3,44.4,30.40,SW,225,3.0,4.0,56,0.00,,,0.00,meteohub,2013-02-12 19:37:00,
2013-02-12 11:42:00,60.4,42.8,30.40,SE,135,3.0,4.0,52,0.00,,,0.00,meteohub,2013-02-12 19:42:00,
2013-02-12 11:47:00,60.4,42.8,30.40,SW,225,4.0,4.0,52,0.00,,,0.00,meteohub,2013-02-12 19:47:00,
2013-02-12 11:52:00,60.4,43.7,30.40,NW,315,2.0,4.0,54,0.00,,,0.00,meteohub,2013-02-12 19:52:00,
2013-02-12 11:57:00,60.8,44.6,30.40,West,270,3.0,4.0,55,0.00,,,0.00,meteohub,2013-02-12 19:57:00,
2013-02-12 12:02:00,61.0,44.8,30.40,North,0,2.0,4.0,55,0.00,,,0.00,meteohub,2013-02-12 20:02:00,
2013-02-12 12:07:00,61.2,44.4,30.40,SW,225,2.0,3.0,54,0.00,,,0.00,meteohub,2013-02-12 20:07:00,
2013-02-12 12:12:00,61.3,44.6,30.40,West,270,3.0,3.0,54,0.00,,,0.00,meteohub,2013-02-12 20:12:00,
2013-02-12 12:17:00,61.2,43.9,30.40,East,90,2.0,4.0,53,0.00,,,0.00,meteohub,2013-02-12 20:17:00,
2013-02-12 12:22:00,61.0,43.2,30.40,NW,315,3.0,4.0,52,0.00,,,0.00,meteohub,2013-02-12 20:22:00,
2013-02-12 12:27:00,61.0,43.7,30.40,NW,315,4.0,4.0,53,0.00,,,0.00,meteohub,2013-02-12 20:27:00,
2013-02-12 12:32:00,61.3,44.1,30.40,NW,315,2.0,4.0,53,0.00,,,0.00,meteohub,2013-02-12 20:32:00,
2013-02-12 12:37:00,61.3,43.0,30.40,NW,315,4.0,4.0,51,0.00,,,0.00,meteohub,2013-02-12 20:37:00,
2013-02-12 12:42:00,61.3,43.5,30.39,NW,315,2.0,4.0,52,0.00,,,0.00,meteohub,2013-02-12 20:42:00,
2013-02-12 12:47:00,61.5,43.7,30.39,North,0,3.0,5.0,52,0.00,,,0.00,meteohub,2013-02-12 20:47:00,
2013-02-12 12:52:00,61.7,42.3,30.39,NW,315,3.0,5.0,49,0.00,,,0.00,meteohub,2013-02-12 20:52:00,
2013-02-12 12:57:00,61.7,42.3,30.39,NW,315,4.0,5.0,49,0.00,,,0.00,meteohub,2013-02-12 20:57:00,
2013-02-12 13:02:00,61.7,42.3,30.39,NW,315,4.0,4.0,49,0.00,,,0.00,meteohub,2013-02-12 21:02:00,
2013-02-12 13:07:00,61.5,42.3,30.39,NW,315,4.0,4.0,49,0.00,,,0.00,meteohub,2013-02-12 21:07:00,
2013-02-12 13:12:00,61.3,41.5,30.39,NW,315,3.0,4.0,48,0.00,,,0.00,meteohub,2013-02-12 21:12:00,
2013-02-12 13:17:00,61.0,40.1,30.39,NW,315,4.0,4.0,46,0.00,,,0.00,meteohub,2013-02-12 21:17:00,
2013-02-12 13:22:00,60.3,39.9,30.38,North,0,3.0,4.0,47,0.00,,,0.00,meteohub,2013-02-12 21:22:00,
2013-02-12 13:27:00,60.3,39.9,30.38,NW,315,3.0,4.0,47,0.00,,,0.00,meteohub,2013-02-12 21:27:00,
2013-02-12 13:32:00,60.4,40.1,30.38,North,0,3.0,4.0,47,0.00,,,0.00,meteohub,2013-02-12 21:32:00,
2013-02-12 13:37:00,60.3,39.9,30.37,NE,45,4.0,4.0,47,0.00,,,0.00,meteohub,2013-02-12 21:37:00,
2013-02-12 13:42:00,60.3,39.9,30.38,NW,315,4.0,6.0,47,0.00,,,0.00,meteohub,2013-02-12 21:42:00,
2013-02-12 13:47:00,60.1,39.7,30.38,NW,315,4.0,6.0,47,0.00,,,0.00,meteohub,2013-02-12 21:47:00,
2013-02-12 13:52:00,59.9,40.1,30.38,NW,315,3.0,6.0,48,0.00,,,0.00,meteohub,2013-02-12 21:52:00,
2013-02-12 13:57:00,60.1,40.3,30.37,North,0,3.0,6.0,48,0.00,,,0.00,meteohub,2013-02-12 21:57:00,
2013-02-12 14:02:00,60.4,41.2,30.37,North,0,5.0,6.0,49,0.00,,,0.00,meteohub,2013-02-12 22:02:00,
2013-02-12 14:07:00,60.1,40.3,30.37,North,0,4.0,7.0,48,0.00,,,0.00,meteohub,2013-02-12 22:07:00,
2013-02-12 14:12:00,59.9,40.6,30.37,North,0,4.0,7.0,49,0.00,,,0.00,meteohub,2013-02-12 22:12:00,
2013-02-12 14:17:00,59.5,40.3,30.37,NW,315,4.0,5.0,49,0.00,,,0.00,meteohub,2013-02-12 22:17:00,
2013-02-12 14:22:00,59.0,39.9,30.37,North,0,3.0,5.0,49,0.00,,,0.00,meteohub,2013-02-12 22:22:00,
2013-02-12 14:27:00,58.3,40.8,30.37,SW,225,3.0,5.0,52,0.00,,,0.00,meteohub,2013-02-12 22:27:00,
2013-02-12 14:32:00,57.9,40.8,30.37,NW,315,3.0,4.0,53,0.00,,,0.00,meteohub,2013-02-12 22:32:00,
2013-02-12 14:37:00,57.7,41.2,30.37,NW,315,3.0,4.0,54,0.00,,,0.00,meteohub,2013-02-12 22:37:00,
2013-02-12 14:42:00,57.9,41.4,30.37,NW,315,3.0,4.0,54,0.00,,,0.00,meteohub,2013-02-12 22:42:00,
2013-02-12 14:47:00,57.6,41.0,30.37,North,0,3.0,5.0,54,0.00,,,0.00,meteohub,2013-02-12 22:47:00,
2013-02-12 14:52:00,57.4,40.8,30.36,West,270,4.0,5.0,54,0.00,,,0.00,meteohub,2013-02-12 22:52:00,
2013-02-12 14:57:00,56.3,40.8,30.36,NW,315,3.0,4.0,56,0.00,,,0.00,meteohub,2013-02-12 22:57:00,
2013-02-12 15:07:00,55.9,41.0,30.36,NW,315,2.0,4.0,57,0.00,,,0.00,meteohub,2013-02-12 23:07:00,
2013-02-12 15:12:00,55.8,40.8,30.36,NW,315,4.0,4.0,57,0.00,,,0.00,meteohub,2013-02-12 23:12:00,
2013-02-12 15:17:00,55.6,41.0,30.36,NNW,338,3.0,4.0,58,0.00,,,0.00,meteohub,2013-02-12 23:17:00,
2013-02-12 15:22:00,55.4,41.4,30.37,NW,315,3.0,4.0,59,0.00,,,0.00,meteohub,2013-02-12 23:22:00,
2013-02-12 15:27:00,55.2,41.5,30.36,WNW,293,3.0,4.0,60,0.00,,,0.00,meteohub,2013-02-12 23:27:00,
2013-02-12 15:32:00,54.9,41.7,30.37,NW,315,2.0,5.0,61,0.00,,,0.00,meteohub,2013-02-12 23:32:00,
2013-02-12 15:37:00,54.7,41.9,30.37,North,0,4.0,5.0,62,0.00,,,0.00,meteohub,2013-02-12 23:37:00,
2013-02-12 15:42:00,54.5,43.0,30.37,North,0,4.0,5.0,65,0.00,,,0.00,meteohub,2013-02-12 23:42:00,
2013-02-12 15:47:00,54.1,42.6,30.37,SW,225,2.0,5.0,65,0.00,,,0.00,meteohub,2013-02-12 23:47:00,
2013-02-12 15:52:00,54.1,42.6,30.37,SW,225,2.0,5.0,65,0.00,,,0.00,meteohub,2013-02-12 23:52:00,
2013-02-12 15:57:00,54.1,42.3,30.37,West,270,3.0,4.0,64,0.00,,,0.00,meteohub,2013-02-12 23:57:00,
2013-02-12 16:02:00,54.1,42.3,30.36,NW,315,2.0,4.0,64,0.00,,,0.00,meteohub,2013-02-13 00:02:00,
2013-02-12 16:07:00,54.0,42.1,30.37,NW,315,2.0,4.0,64,0.00,,,0.00,meteohub,2013-02-13 00:07:00,
2013-02-12 16:12:00,53.8,41.5,30.36,NW,315,2.0,4.0,63,0.00,,,0.00,meteohub,2013-02-13 00:12:00,
2013-02-12 16:17:00,53.8,41.5,30.36,NW,315,2.0,4.0,63,0.00,,,0.00,meteohub,2013-02-13 00:17:00,
2013-02-12 16:22:00,53.8,41.5,30.37,NW,315,2.0,4.0,63,0.00,,,0.00,meteohub,2013-02-13 00:22:00,
2013-02-12 16:27:00,53.8,41.5,30.37,NW,315,2.0,4.0,63,0.00,,,0.00,meteohub,2013-02-13 00:27:00,
2013-02-12 16:32:00,53.8,41.5,30.37,North,0,4.0,4.0,63,0.00,,,0.00,meteohub,2013-02-13 00:32:00,
2013-02-12 16:37:00,53.6,41.4,30.36,West,270,1.0,4.0,63,0.00,,,0.00,meteohub,2013-02-13 00:37:00,
2013-02-12 16:42:00,53.4,41.2,30.36,SW,225,2.0,4.0,63,0.00,,,0.00,meteohub,2013-02-13 00:42:00,
2013-02-12 16:47:00,53.1,40.8,30.37,SW,225,0.0,4.0,63,0.00,,,0.00,meteohub,2013-02-13 00:47:00,
2013-02-12 16:52:00,52.9,41.0,30.36,SW,225,0.0,3.0,64,0.00,,,0.00,meteohub,2013-02-13 00:52:00,
2013-02-12 16:57:00,52.7,41.2,30.36,West,270,2.0,3.0,65,0.00,,,0.00,meteohub,2013-02-13 00:57:00,
2013-02-12 17:02:00,52.3,41.0,30.36,SW,225,2.0,2.0,65,0.00,,,0.00,meteohub,2013-02-13 01:02:00,
2013-02-12 17:07:00,52.3,41.0,30.36,SW,225,2.0,2.0,65,0.00,,,0.00,meteohub,2013-02-13 01:07:00,
2013-02-12 17:12:00,52.0,40.6,30.36,SW,225,0.0,2.0,65,0.00,,,0.00,meteohub,2013-02-13 01:12:00,
2013-02-12 17:17:00,51.8,40.8,30.36,West,270,1.0,2.0,66,0.00,,,0.00,meteohub,2013-02-13 01:17:00,
2013-02-12 17:22:00,51.6,41.0,30.37,SW,225,2.0,2.0,67,0.00,,,0.00,meteohub,2013-02-13 01:22:00,
2013-02-12 17:27:00,50.9,40.3,30.37,SW,225,0.0,2.0,67,0.00,,,0.00,meteohub,2013-02-13 01:27:00,
2013-02-12 17:32:00,50.9,40.6,30.37,SW,225,0.0,2.0,68,0.00,,,0.00,meteohub,2013-02-13 01:32:00,
2013-02-12 17:37:00,50.4,40.3,30.37,SW,225,0.0,2.0,68,0.00,,,0.00,meteohub,2013-02-13 01:37:00,
2013-02-12 17:42:00,50.4,40.6,30.37,SW,225,1.0,0.0,69,0.00,,,0.00,meteohub,2013-02-13 01:42:00,
2013-02-12 17:47:00,49.8,40.5,30.37,NW,315,1.0,1.0,70,0.00,,,0.00,meteohub,2013-02-13 01:47:00,
2013-02-12 17:52:00,49.6,40.6,30.37,NE,45,0.0,2.0,71,0.00,,,0.00,meteohub,2013-02-13 01:52:00,
2013-02-12 17:57:00,49.1,40.1,30.37,West,270,0.0,2.0,71,0.00,,,0.00,meteohub,2013-02-13 01:57:00,
2013-02-12 18:02:00,48.7,40.1,30.37,West,270,0.0,2.0,72,0.00,,,0.00,meteohub,2013-02-13 02:02:00,
2013-02-12 18:07:00,48.7,40.1,30.37,West,270,0.0,1.0,72,0.00,,,0.00,meteohub,2013-02-13 02:07:00,
2013-02-12 18:12:00,47.8,39.6,30.37,West,270,0.0,0.0,73,0.00,,,0.00,meteohub,2013-02-13 02:12:00,
2013-02-12 18:17:00,47.5,39.6,30.37,West,270,0.0,0.0,74,0.00,,,0.00,meteohub,2013-02-13 02:17:00,
2013-02-12 18:22:00,47.1,39.6,30.37,West,270,0.0,0.0,75,0.00,,,0.00,meteohub,2013-02-13 02:22:00,
2013-02-12 18:27:00,46.9,39.4,30.37,West,270,0.0,0.0,75,0.00,,,0.00,meteohub,2013-02-13 02:27:00,
2013-02-12 18:32:00,46.6,39.4,30.37,West,270,0.0,0.0,76,0.00,,,0.00,meteohub,2013-02-13 02:32:00,
2013-02-12 18:37:00,46.4,39.6,30.37,SE,135,2.0,0.0,77,0.00,,,0.00,meteohub,2013-02-13 02:37:00,
2013-02-12 18:42:00,46.2,39.7,30.37,SW,225,0.0,2.0,78,0.00,,,0.00,meteohub,2013-02-13 02:42:00,
2013-02-12 18:47:00,46.0,39.6,30.37,SW,225,0.0,2.0,78,0.00,,,0.00,meteohub,2013-02-13 02:47:00,
2013-02-12 18:52:00,45.9,39.4,30.37,SW,225,0.0,2.0,78,0.00,,,0.00,meteohub,2013-02-13 02:52:00,
2013-02-12 18:57:00,45.5,39.0,30.38,SW,225,0.0,1.0,78,0.00,,,0.00,meteohub,2013-02-13 02:57:00,
2013-02-12 19:02:00,45.3,39.2,30.37,SW,225,0.0,1.0,79,0.00,,,0.00,meteohub,2013-02-13 03:02:00,
2013-02-12 19:07:00,45.3,39.2,30.38,SW,225,0.0,0.0,79,0.00,,,0.00,meteohub,2013-02-13 03:07:00,
2013-02-12 19:12:00,44.6,38.5,30.37,East,90,0.0,0.0,79,0.00,,,0.00,meteohub,2013-02-13 03:12:00,
2013-02-12 19:17:00,44.4,38.3,30.37,East,90,0.0,0.0,79,0.00,,,0.00,meteohub,2013-02-13 03:17:00,
2013-02-12 19:22:00,44.2,38.5,30.37,East,90,0.0,0.0,80,0.00,,,0.00,meteohub,2013-02-13 03:22:00,
2013-02-12 19:27:00,44.1,38.7,30.37,East,90,0.0,1.0,81,0.00,,,0.00,meteohub,2013-02-13 03:27:00,
2013-02-12 19:32:00,43.9,38.5,30.37,East,90,0.0,1.0,81,0.00,,,0.00,meteohub,2013-02-13 03:32:00,
2013-02-12 19:37:00,43.7,38.3,30.37,East,90,0.0,1.0,81,0.00,,,0.00,meteohub,2013-02-13 03:37:00,
2013-02-12 19:42:00,43.5,38.1,30.38,East,90,0.0,0.0,81,0.00,,,0.00,meteohub,2013-02-13 03:42:00,
2013-02-12 19:47:00,43.3,38.3,30.37,East,90,0.0,0.0,82,0.00,,,0.00,meteohub,2013-02-13 03:47:00,
2013-02-12 19:52:00,43.2,38.1,30.37,East,90,0.0,0.0,82,0.00,,,0.00,meteohub,2013-02-13 03:52:00,
2013-02-12 19:57:00,43.0,37.9,30.37,East,90,0.0,0.0,82,0.00,,,0.00,meteohub,2013-02-13 03:57:00,
2013-02-12 20:02:00,43.0,37.9,30.38,East,90,0.0,0.0,82,0.00,,,0.00,meteohub,2013-02-13 04:02:00,
2013-02-12 20:07:00,43.0,37.9,30.38,East,90,0.0,0.0,82,0.00,,,0.00,meteohub,2013-02-13 04:07:00,
2013-02-12 20:12:00,42.6,37.6,30.38,East,90,0.0,0.0,82,0.00,,,0.00,meteohub,2013-02-13 04:12:00,
2013-02-12 20:17:00,42.6,37.6,30.38,East,90,0.0,0.0,82,0.00,,,0.00,meteohub,2013-02-13 04:17:00,
2013-02-12 20:22:00,42.4,37.4,30.38,East,90,0.0,0.0,82,0.00,,,0.00,meteohub,2013-02-13 04:22:00,
2013-02-12 20:27:00,42.4,37.4,30.38,East,90,0.0,0.0,82,0.00,,,0.00,meteohub,2013-02-13 04:27:00,
2013-02-12 20:32:00,42.3,37.2,30.38,East,90,0.0,0.0,82,0.00,,,0.00,meteohub,2013-02-13 04:32:00,
2013-02-12 20:37:00,42.1,37.0,30.38,East,90,0.0,0.0,82,0.00,,,0.00,meteohub,2013-02-13 04:37:00,
2013-02-12 20:42:00,41.9,36.9,30.38,East,90,0.0,0.0,82,0.00,,,0.00,meteohub,2013-02-13 04:42:00,
2013-02-12 20:47:00,41.7,36.9,30.38,East,90,0.0,0.0,83,0.00,,,0.00,meteohub,2013-02-13 04:47:00,
2013-02-12 20:52:00,41.5,36.7,30.38,East,90,0.0,0.0,83,0.00,,,0.00,meteohub,2013-02-13 04:52:00,
2013-02-12 20:57:00,41.5,36.7,30.38,East,90,0.0,0.0,83,0.00,,,0.00,meteohub,2013-02-13 04:57:00,
2013-02-12 21:02:00,41.5,36.7,30.38,East,90,0.0,0.0,83,0.00,,,0.00,meteohub,2013-02-13 05:02:00,
2013-02-12 21:07:00,41.5,36.7,30.38,East,90,0.0,0.0,83,0.00,,,0.00,meteohub,2013-02-13 05:07:00,
2013-02-12 21:12:00,41.2,36.5,30.38,East,90,0.0,0.0,83,0.00,,,0.00,meteohub,2013-02-13 05:12:00,
2013-02-12 21:17:00,41.2,36.7,30.38,East,90,0.0,0.0,84,0.00,,,0.00,meteohub,2013-02-13 05:17:00,
2013-02-12 21:22:00,41.0,36.5,30.39,East,90,0.0,0.0,84,0.00,,,0.00,meteohub,2013-02-13 05:22:00,
2013-02-12 21:27:00,40.8,36.3,30.38,East,90,0.0,0.0,84,0.00,,,0.00,meteohub,2013-02-13 05:27:00,
2013-02-12 21:32:00,40.8,36.3,30.39,East,90,0.0,0.0,84,0.00,,,0.00,meteohub,2013-02-13 05:32:00,
2013-02-12 21:37:00,40.6,36.1,30.39,East,90,0.0,0.0,84,0.00,,,0.00,meteohub,2013-02-13 05:37:00,
2013-02-12 21:42:00,40.6,36.1,30.39,East,90,0.0,0.0,84,0.00,,,0.00,meteohub,2013-02-13 05:42:00,
2013-02-12 21:47:00,40.6,36.5,30.39,East,90,0.0,0.0,85,0.00,,,0.00,meteohub,2013-02-13 05:47:00,
2013-02-12 21:52:00,40.5,36.3,30.39,East,90,0.0,0.0,85,0.00,,,0.00,meteohub,2013-02-13 05:52:00,
2013-02-12 21:57:00,40.5,36.3,30.39,East,90,0.0,0.0,85,0.00,,,0.00,meteohub,2013-02-13 05:57:00,
2013-02-12 22:02:00,40.5,36.3,30.40,East,90,0.0,0.0,85,0.00,,,0.00,meteohub,2013-02-13 06:02:00,
2013-02-12 22:12:00,40.1,36.0,30.39,East,90,0.0,0.0,85,0.00,,,0.00,meteohub,2013-02-13 06:12:00,
2013-02-12 22:17:00,39.9,35.8,30.39,East,90,0.0,0.0,85,0.00,,,0.00,meteohub,2013-02-13 06:17:00,
2013-02-12 22:22:00,39.7,35.6,30.39,East,90,0.0,0.0,85,0.00,,,0.00,meteohub,2013-02-13 06:22:00,
2013-02-12 22:27:00,39.6,35.4,30.38,East,90,0.0,0.0,85,0.00,,,0.00,meteohub,2013-02-13 06:27:00,
2013-02-12 22:32:00,39.6,35.4,30.39,East,90,0.0,0.0,85,0.00,,,0.00,meteohub,2013-02-13 06:32:00,
2013-02-12 22:37:00,39.6,35.8,30.39,East,90,0.0,0.0,86,0.00,,,0.00,meteohub,2013-02-13 06:37:00,
2013-02-12 22:42:00,39.7,36.0,30.39,East,90,0.0,0.0,86,0.00,,,0.00,meteohub,2013-02-13 06:42:00,
2013-02-12 22:47:00,39.6,35.8,30.39,East,90,0.0,0.0,86,0.00,,,0.00,meteohub,2013-02-13 06:47:00,
2013-02-12 22:57:00,39.6,35.8,30.39,East,90,0.0,1.0,86,0.00,,,0.00,meteohub,2013-02-13 06:57:00,
2013-02-12 23:02:00,39.6,35.8,30.39,East,90,0.0,1.0,86,0.00,,,0.00,meteohub,2013-02-13 07:02:00,
2013-02-12 23:07:00,39.6,35.8,30.38,East,90,0.0,1.0,86,0.00,,,0.00,meteohub,2013-02-13 07:07:00,
2013-02-12 23:12:00,39.2,35.4,30.39,East,90,0.0,0.0,86,0.00,,,0.00,meteohub,2013-02-13 07:12:00,
2013-02-12 23:17:00,39.2,35.4,30.40,East,90,0.0,0.0,86,0.00,,,0.00,meteohub,2013-02-13 07:17:00,
2013-02-12 23:22:00,39.2,35.4,30.39,East,90,0.0,0.0,86,0.00,,,0.00,meteohub,2013-02-13 07:22:00,
2013-02-12 23:27:00,39.2,35.4,30.39,East,90,0.0,0.0,86,0.00,,,0.00,meteohub,2013-02-13 07:27:00,
2013-02-12 23:32:00,39.4,35.6,30.40,East,90,2.0,0.0,86,0.00,,,0.00,meteohub,2013-02-13 07:32:00,
2013-02-12 23:37:00,39.7,36.0,30.39,SE,135,2.0,2.0,86,0.00,,,0.00,meteohub,2013-02-13 07:37:00,
2013-02-12 23:42:00,39.9,36.1,30.39,West,270,1.0,2.0,86,0.00,,,0.00,meteohub,2013-02-13 07:42:00,
2013-02-12 23:47:00,39.6,35.4,30.40,West,270,0.0,2.0,85,0.00,,,0.00,meteohub,2013-02-13 07:47:00,
2013-02-12 23:52:00,39.4,35.2,30.40,SE,135,0.0,2.0,85,0.00,,,0.00,meteohub,2013-02-13 07:52:00,
2013-02-12 23:57:00,39.2,35.1,30.40,SE,135,0.0,1.0,85,0.00,,,0.00,meteohub,2013-02-13 07:57:00,